sensor_id;sensor_type;location;lat;lon;timestamp;P1;durP1;ratioP1;P2;durP2;ratioP2
16892;SDS011;8563;52.242;9.098;2022-12-04T00:00:10;43.87;;;25.40;;
16892;SDS011;8563;52.242;9.098;2022-12-04T00:02:43;45.57;;;26.87;;
16892;SDS011;8563;52.242;9.098;2022-12-04T00:05:17;47.13;;;26.37;;
16892;SDS011;8563;52.242;9.098;2022-12-04T00:07:50;42.70;;;25.03;;
16892;SDS011;8563;52.242;9.098;2022-12-04T00:10:22;43.63;;;26.03;;
16892;SDS011;8563;52.242;9.098;2022-12-04T00:12:55;44.87;;;25.97;;
16892;SDS011;8563;52.242;9.098;2022-12-04T00:15:28;42.60;;;24.30;;
16892;SDS011;8563;52.242;9.098;2022-12-04T00:18:00;38.83;;;24.33;;
16892;SDS011;8563;52.242;9.098;2022-12-04T00:20:35;41.10;;;24.37;;
16892;SDS011;8563;52.242;9.098;2022-12-04T00:23:10;41.40;;;25.23;;
16892;SDS011;8563;52.242;9.098;2022-12-04T00:25:42;37.67;;;23.47;;
16892;SDS011;8563;52.242;9.098;2022-12-04T00:28:17;36.50;;;21.90;;
16892;SDS011;8563;52.242;9.098;2022-12-04T00:30:50;40.77;;;23.93;;
16892;SDS011;8563;52.242;9.098;2022-12-04T00:33:22;39.40;;;23.57;;
16892;SDS011;8563;52.242;9.098;2022-12-04T00:35:57;36.63;;;22.97;;
16892;SDS011;8563;52.242;9.098;2022-12-04T00:38:29;35.43;;;21.20;;
16892;SDS011;8563;52.242;9.098;2022-12-04T00:41:02;34.07;;;21.80;;
16892;SDS011;8563;52.242;9.098;2022-12-04T00:43:35;41.47;;;23.20;;
16892;SDS011;8563;52.242;9.098;2022-12-04T00:46:07;40.17;;;23.13;;
16892;SDS011;8563;52.242;9.098;2022-12-04T00:48:40;37.53;;;23.00;;
16892;SDS011;8563;52.242;9.098;2022-12-04T00:51:16;36.07;;;21.37;;
16892;SDS011;8563;52.242;9.098;2022-12-04T00:53:49;39.57;;;22.57;;
16892;SDS011;8563;52.242;9.098;2022-12-04T00:56:22;36.83;;;22.70;;
16892;SDS011;8563;52.242;9.098;2022-12-04T00:58:56;35.27;;;21.63;;
16892;SDS011;8563;52.242;9.098;2022-12-04T01:01:29;35.20;;;21.97;;
16892;SDS011;8563;52.242;9.098;2022-12-04T01:04:01;36.50;;;22.40;;
16892;SDS011;8563;52.242;9.098;2022-12-04T01:06:35;35.83;;;21.80;;
16892;SDS011;8563;52.242;9.098;2022-12-04T01:09:08;35.27;;;21.57;;
16892;SDS011;8563;52.242;9.098;2022-12-04T01:11:40;33.17;;;21.17;;
16892;SDS011;8563;52.242;9.098;2022-12-04T01:14:13;38.13;;;21.77;;
16892;SDS011;8563;52.242;9.098;2022-12-04T01:16:45;35.40;;;22.23;;
16892;SDS011;8563;52.242;9.098;2022-12-04T01:19:18;37.00;;;21.90;;
16892;SDS011;8563;52.242;9.098;2022-12-04T01:21:52;36.40;;;21.47;;
16892;SDS011;8563;52.242;9.098;2022-12-04T01:24:24;36.07;;;21.90;;
16892;SDS011;8563;52.242;9.098;2022-12-04T01:26:57;35.03;;;20.47;;
16892;SDS011;8563;52.242;9.098;2022-12-04T01:29:29;30.70;;;19.87;;
16892;SDS011;8563;52.242;9.098;2022-12-04T01:32:02;34.47;;;20.43;;
16892;SDS011;8563;52.242;9.098;2022-12-04T01:34:34;35.13;;;20.97;;
16892;SDS011;8563;52.242;9.098;2022-12-04T01:37:08;34.87;;;20.70;;
16892;SDS011;8563;52.242;9.098;2022-12-04T01:39:41;35.20;;;20.07;;
16892;SDS011;8563;52.242;9.098;2022-12-04T01:42:14;32.63;;;20.17;;
16892;SDS011;8563;52.242;9.098;2022-12-04T01:47:34;32.37;;;18.63;;
16892;SDS011;8563;52.242;9.098;2022-12-04T01:50:07;35.23;;;20.13;;
16892;SDS011;8563;52.242;9.098;2022-12-04T01:52:41;29.40;;;19.50;;
16892;SDS011;8563;52.242;9.098;2022-12-04T01:55:13;34.73;;;21.17;;
16892;SDS011;8563;52.242;9.098;2022-12-04T01:57:46;33.43;;;20.50;;
16892;SDS011;8563;52.242;9.098;2022-12-04T02:00:19;34.67;;;20.53;;
16892;SDS011;8563;52.242;9.098;2022-12-04T02:02:51;29.60;;;18.80;;
16892;SDS011;8563;52.242;9.098;2022-12-04T02:05:23;34.27;;;19.90;;
16892;SDS011;8563;52.242;9.098;2022-12-04T02:07:58;31.53;;;18.80;;
16892;SDS011;8563;52.242;9.098;2022-12-04T02:10:34;33.93;;;19.33;;
16892;SDS011;8563;52.242;9.098;2022-12-04T02:13:10;30.50;;;18.50;;
16892;SDS011;8563;52.242;9.098;2022-12-04T02:15:47;32.30;;;20.03;;
16892;SDS011;8563;52.242;9.098;2022-12-04T02:18:25;31.10;;;19.30;;
16892;SDS011;8563;52.242;9.098;2022-12-04T02:21:02;31.67;;;19.17;;
16892;SDS011;8563;52.242;9.098;2022-12-04T02:23:44;31.23;;;19.17;;
16892;SDS011;8563;52.242;9.098;2022-12-04T02:26:25;28.47;;;18.37;;
16892;SDS011;8563;52.242;9.098;2022-12-04T02:29:04;30.03;;;18.53;;
16892;SDS011;8563;52.242;9.098;2022-12-04T02:31:40;28.50;;;17.50;;
16892;SDS011;8563;52.242;9.098;2022-12-04T02:34:15;30.67;;;18.37;;
16892;SDS011;8563;52.242;9.098;2022-12-04T02:36:51;33.07;;;18.77;;
16892;SDS011;8563;52.242;9.098;2022-12-04T02:39:24;31.23;;;19.03;;
16892;SDS011;8563;52.242;9.098;2022-12-04T02:41:58;32.50;;;18.93;;
16892;SDS011;8563;52.242;9.098;2022-12-04T02:44:34;33.73;;;18.93;;
16892;SDS011;8563;52.242;9.098;2022-12-04T02:47:09;38.60;;;19.23;;
16892;SDS011;8563;52.242;9.098;2022-12-04T02:49:44;36.00;;;19.93;;
16892;SDS011;8563;52.242;9.098;2022-12-04T02:52:18;36.60;;;18.93;;
16892;SDS011;8563;52.242;9.098;2022-12-04T02:54:53;36.37;;;20.20;;
16892;SDS011;8563;52.242;9.098;2022-12-04T02:57:28;34.13;;;18.93;;
16892;SDS011;8563;52.242;9.098;2022-12-04T03:00:05;33.90;;;19.60;;
16892;SDS011;8563;52.242;9.098;2022-12-04T03:02:39;36.77;;;19.87;;
16892;SDS011;8563;52.242;9.098;2022-12-04T03:05:14;32.37;;;18.00;;
16892;SDS011;8563;52.242;9.098;2022-12-04T03:07:48;39.20;;;19.67;;
16892;SDS011;8563;52.242;9.098;2022-12-04T03:10:23;35.13;;;19.07;;
16892;SDS011;8563;52.242;9.098;2022-12-04T03:12:57;38.23;;;18.50;;
16892;SDS011;8563;52.242;9.098;2022-12-04T03:15:33;35.03;;;18.57;;
16892;SDS011;8563;52.242;9.098;2022-12-04T03:18:08;33.67;;;18.40;;
16892;SDS011;8563;52.242;9.098;2022-12-04T03:20:41;34.23;;;18.47;;
16892;SDS011;8563;52.242;9.098;2022-12-04T03:23:17;33.67;;;18.73;;
16892;SDS011;8563;52.242;9.098;2022-12-04T03:25:53;30.50;;;17.40;;
16892;SDS011;8563;52.242;9.098;2022-12-04T03:28:30;34.17;;;18.47;;
16892;SDS011;8563;52.242;9.098;2022-12-04T03:31:07;32.73;;;18.03;;
16892;SDS011;8563;52.242;9.098;2022-12-04T03:33:40;35.43;;;17.57;;
16892;SDS011;8563;52.242;9.098;2022-12-04T03:36:15;34.43;;;17.63;;
16892;SDS011;8563;52.242;9.098;2022-12-04T03:38:50;32.33;;;17.87;;
16892;SDS011;8563;52.242;9.098;2022-12-04T03:41:25;32.83;;;18.33;;
16892;SDS011;8563;52.242;9.098;2022-12-04T03:44:02;30.53;;;16.80;;
16892;SDS011;8563;52.242;9.098;2022-12-04T03:46:39;29.50;;;16.83;;
16892;SDS011;8563;52.242;9.098;2022-12-04T03:49:14;29.97;;;16.10;;
16892;SDS011;8563;52.242;9.098;2022-12-04T03:51:50;29.50;;;15.97;;
16892;SDS011;8563;52.242;9.098;2022-12-04T03:54:26;28.87;;;16.17;;
16892;SDS011;8563;52.242;9.098;2022-12-04T03:57:01;29.07;;;15.87;;
16892;SDS011;8563;52.242;9.098;2022-12-04T03:59:36;27.20;;;14.90;;
16892;SDS011;8563;52.242;9.098;2022-12-04T04:02:12;26.43;;;15.40;;
16892;SDS011;8563;52.242;9.098;2022-12-04T04:04:46;25.93;;;15.17;;
16892;SDS011;8563;52.242;9.098;2022-12-04T04:07:21;28.57;;;15.93;;
16892;SDS011;8563;52.242;9.098;2022-12-04T04:09:56;28.20;;;15.63;;
16892;SDS011;8563;52.242;9.098;2022-12-04T04:12:30;27.90;;;14.87;;
16892;SDS011;8563;52.242;9.098;2022-12-04T04:15:05;25.17;;;14.13;;
16892;SDS011;8563;52.242;9.098;2022-12-04T04:17:58;26.70;;;14.83;;
16892;SDS011;8563;52.242;9.098;2022-12-04T04:20:51;31.87;;;15.67;;
16892;SDS011;8563;52.242;9.098;2022-12-04T04:23:42;26.23;;;14.63;;
16892;SDS011;8563;52.242;9.098;2022-12-04T04:26:35;23.73;;;13.57;;
16892;SDS011;8563;52.242;9.098;2022-12-04T04:29:09;28.80;;;15.50;;
16892;SDS011;8563;52.242;9.098;2022-12-04T04:31:42;26.00;;;14.43;;
16892;SDS011;8563;52.242;9.098;2022-12-04T04:34:20;26.37;;;14.33;;
16892;SDS011;8563;52.242;9.098;2022-12-04T04:36:57;27.30;;;15.33;;
16892;SDS011;8563;52.242;9.098;2022-12-04T04:39:33;29.30;;;15.57;;
16892;SDS011;8563;52.242;9.098;2022-12-04T04:42:08;29.93;;;15.37;;
16892;SDS011;8563;52.242;9.098;2022-12-04T04:44:43;29.43;;;15.40;;
16892;SDS011;8563;52.242;9.098;2022-12-04T04:47:20;27.83;;;14.23;;
16892;SDS011;8563;52.242;9.098;2022-12-04T04:49:58;26.63;;;14.60;;
16892;SDS011;8563;52.242;9.098;2022-12-04T04:52:32;27.17;;;15.00;;
16892;SDS011;8563;52.242;9.098;2022-12-04T04:55:06;25.50;;;14.57;;
16892;SDS011;8563;52.242;9.098;2022-12-04T04:57:39;25.43;;;15.03;;
16892;SDS011;8563;52.242;9.098;2022-12-04T05:00:13;25.70;;;14.57;;
16892;SDS011;8563;52.242;9.098;2022-12-04T05:02:46;24.60;;;14.37;;
16892;SDS011;8563;52.242;9.098;2022-12-04T05:05:20;22.27;;;14.90;;
16892;SDS011;8563;52.242;9.098;2022-12-04T05:07:53;25.60;;;15.33;;
16892;SDS011;8563;52.242;9.098;2022-12-04T05:10:25;25.77;;;15.33;;
16892;SDS011;8563;52.242;9.098;2022-12-04T05:12:58;26.50;;;15.33;;
16892;SDS011;8563;52.242;9.098;2022-12-04T05:15:30;27.73;;;15.17;;
16892;SDS011;8563;52.242;9.098;2022-12-04T05:18:03;24.57;;;15.07;;
16892;SDS011;8563;52.242;9.098;2022-12-04T05:20:38;24.37;;;14.00;;
16892;SDS011;8563;52.242;9.098;2022-12-04T05:23:09;27.20;;;14.83;;
16892;SDS011;8563;52.242;9.098;2022-12-04T05:25:42;22.93;;;14.90;;
16892;SDS011;8563;52.242;9.098;2022-12-04T05:28:14;27.83;;;15.47;;
16892;SDS011;8563;52.242;9.098;2022-12-04T05:30:52;24.87;;;14.90;;
16892;SDS011;8563;52.242;9.098;2022-12-04T05:33:25;25.70;;;15.00;;
16892;SDS011;8563;52.242;9.098;2022-12-04T05:35:59;24.07;;;15.17;;
16892;SDS011;8563;52.242;9.098;2022-12-04T05:38:32;25.53;;;14.93;;
16892;SDS011;8563;52.242;9.098;2022-12-04T05:41:05;27.73;;;15.27;;
16892;SDS011;8563;52.242;9.098;2022-12-04T05:43:38;26.33;;;15.33;;
16892;SDS011;8563;52.242;9.098;2022-12-04T05:46:10;28.20;;;16.00;;
16892;SDS011;8563;52.242;9.098;2022-12-04T05:48:43;24.90;;;14.90;;
16892;SDS011;8563;52.242;9.098;2022-12-04T05:51:16;26.07;;;15.10;;
16892;SDS011;8563;52.242;9.098;2022-12-04T05:53:50;27.40;;;15.17;;
16892;SDS011;8563;52.242;9.098;2022-12-04T05:56:23;24.60;;;14.73;;
16892;SDS011;8563;52.242;9.098;2022-12-04T05:58:55;22.43;;;14.27;;
16892;SDS011;8563;52.242;9.098;2022-12-04T06:01:28;27.10;;;16.53;;
16892;SDS011;8563;52.242;9.098;2022-12-04T06:04:01;23.03;;;14.87;;
16892;SDS011;8563;52.242;9.098;2022-12-04T06:06:35;27.87;;;16.47;;
16892;SDS011;8563;52.242;9.098;2022-12-04T06:09:08;29.03;;;16.17;;
16892;SDS011;8563;52.242;9.098;2022-12-04T06:11:41;29.20;;;16.20;;
16892;SDS011;8563;52.242;9.098;2022-12-04T06:14:13;26.40;;;15.77;;
16892;SDS011;8563;52.242;9.098;2022-12-04T06:16:46;27.53;;;16.03;;
16892;SDS011;8563;52.242;9.098;2022-12-04T06:19:19;27.07;;;16.63;;
16892;SDS011;8563;52.242;9.098;2022-12-04T06:21:53;30.40;;;18.77;;
16892;SDS011;8563;52.242;9.098;2022-12-04T06:24:26;28.43;;;16.73;;
16892;SDS011;8563;52.242;9.098;2022-12-04T06:26:58;25.27;;;16.37;;
16892;SDS011;8563;52.242;9.098;2022-12-04T06:29:31;29.03;;;18.63;;
16892;SDS011;8563;52.242;9.098;2022-12-04T06:32:04;28.80;;;17.33;;
16892;SDS011;8563;52.242;9.098;2022-12-04T06:34:36;28.60;;;17.50;;
16892;SDS011;8563;52.242;9.098;2022-12-04T06:37:10;27.70;;;17.63;;
16892;SDS011;8563;52.242;9.098;2022-12-04T06:39:42;28.57;;;18.47;;
16892;SDS011;8563;52.242;9.098;2022-12-04T06:42:15;31.60;;;18.73;;
16892;SDS011;8563;52.242;9.098;2022-12-04T06:44:48;29.03;;;17.70;;
16892;SDS011;8563;52.242;9.098;2022-12-04T06:47:20;30.00;;;18.27;;
16892;SDS011;8563;52.242;9.098;2022-12-04T06:49:53;28.93;;;18.10;;
16892;SDS011;8563;52.242;9.098;2022-12-04T06:52:26;33.23;;;18.73;;
16892;SDS011;8563;52.242;9.098;2022-12-04T06:54:59;30.30;;;19.60;;
16892;SDS011;8563;52.242;9.098;2022-12-04T06:57:32;30.23;;;17.97;;
16892;SDS011;8563;52.242;9.098;2022-12-04T07:00:05;33.43;;;18.90;;
16892;SDS011;8563;52.242;9.098;2022-12-04T07:02:38;31.17;;;19.20;;
16892;SDS011;8563;52.242;9.098;2022-12-04T07:05:10;32.53;;;20.27;;
16892;SDS011;8563;52.242;9.098;2022-12-04T07:07:45;31.67;;;18.23;;
16892;SDS011;8563;52.242;9.098;2022-12-04T07:10:18;33.47;;;19.33;;
16892;SDS011;8563;52.242;9.098;2022-12-04T07:12:50;30.97;;;18.77;;
16892;SDS011;8563;52.242;9.098;2022-12-04T07:15:23;32.07;;;19.57;;
16892;SDS011;8563;52.242;9.098;2022-12-04T07:17:55;32.37;;;19.97;;
16892;SDS011;8563;52.242;9.098;2022-12-04T07:20:28;32.57;;;20.30;;
16892;SDS011;8563;52.242;9.098;2022-12-04T07:23:02;33.27;;;20.60;;
16892;SDS011;8563;52.242;9.098;2022-12-04T07:25:37;37.13;;;21.53;;
16892;SDS011;8563;52.242;9.098;2022-12-04T07:28:10;36.67;;;22.40;;
16892;SDS011;8563;52.242;9.098;2022-12-04T07:30:42;38.57;;;22.17;;
16892;SDS011;8563;52.242;9.098;2022-12-04T07:33:15;37.17;;;21.87;;
16892;SDS011;8563;52.242;9.098;2022-12-04T07:35:53;36.03;;;21.60;;
16892;SDS011;8563;52.242;9.098;2022-12-04T07:38:27;37.33;;;22.87;;
16892;SDS011;8563;52.242;9.098;2022-12-04T07:41:00;40.90;;;24.10;;
16892;SDS011;8563;52.242;9.098;2022-12-04T07:43:33;42.20;;;24.27;;
16892;SDS011;8563;52.242;9.098;2022-12-04T07:46:06;40.53;;;24.43;;
16892;SDS011;8563;52.242;9.098;2022-12-04T07:48:39;36.97;;;22.23;;
16892;SDS011;8563;52.242;9.098;2022-12-04T07:51:12;41.47;;;24.00;;
16892;SDS011;8563;52.242;9.098;2022-12-04T07:53:47;44.50;;;25.73;;
16892;SDS011;8563;52.242;9.098;2022-12-04T07:56:19;42.33;;;25.27;;
16892;SDS011;8563;52.242;9.098;2022-12-04T07:58:52;43.07;;;24.83;;
16892;SDS011;8563;52.242;9.098;2022-12-04T08:01:24;41.57;;;24.70;;
16892;SDS011;8563;52.242;9.098;2022-12-04T08:03:57;40.27;;;23.97;;
16892;SDS011;8563;52.242;9.098;2022-12-04T08:06:31;41.13;;;24.80;;
16892;SDS011;8563;52.242;9.098;2022-12-04T08:09:06;43.10;;;25.13;;
16892;SDS011;8563;52.242;9.098;2022-12-04T08:11:39;45.83;;;25.30;;
16892;SDS011;8563;52.242;9.098;2022-12-04T08:14:11;44.87;;;26.33;;
16892;SDS011;8563;52.242;9.098;2022-12-04T08:16:44;43.67;;;25.83;;
16892;SDS011;8563;52.242;9.098;2022-12-04T08:19:17;49.63;;;26.80;;
16892;SDS011;8563;52.242;9.098;2022-12-04T08:21:49;40.20;;;25.27;;
16892;SDS011;8563;52.242;9.098;2022-12-04T08:24:23;42.77;;;25.10;;
16892;SDS011;8563;52.242;9.098;2022-12-04T08:26:55;46.00;;;25.77;;
16892;SDS011;8563;52.242;9.098;2022-12-04T08:29:28;44.00;;;25.93;;
16892;SDS011;8563;52.242;9.098;2022-12-04T08:32:00;40.97;;;24.60;;
16892;SDS011;8563;52.242;9.098;2022-12-04T08:34:33;42.57;;;25.50;;
16892;SDS011;8563;52.242;9.098;2022-12-04T08:37:06;43.13;;;24.17;;
16892;SDS011;8563;52.242;9.098;2022-12-04T08:39:40;40.90;;;25.03;;
16892;SDS011;8563;52.242;9.098;2022-12-04T08:42:13;41.23;;;25.07;;
16892;SDS011;8563;52.242;9.098;2022-12-04T08:44:45;40.17;;;24.83;;
16892;SDS011;8563;52.242;9.098;2022-12-04T08:47:18;37.20;;;24.23;;
16892;SDS011;8563;52.242;9.098;2022-12-04T08:49:51;38.17;;;23.97;;
16892;SDS011;8563;52.242;9.098;2022-12-04T08:52:23;39.23;;;23.57;;
16892;SDS011;8563;52.242;9.098;2022-12-04T08:54:57;38.40;;;23.97;;
16892;SDS011;8563;52.242;9.098;2022-12-04T08:57:30;40.43;;;24.10;;
16892;SDS011;8563;52.242;9.098;2022-12-04T09:00:02;42.10;;;24.90;;
16892;SDS011;8563;52.242;9.098;2022-12-04T09:02:35;41.53;;;25.73;;
16892;SDS011;8563;52.242;9.098;2022-12-04T09:05:08;38.30;;;23.87;;
16892;SDS011;8563;52.242;9.098;2022-12-04T09:07:40;42.07;;;25.10;;
16892;SDS011;8563;52.242;9.098;2022-12-04T09:10:14;40.83;;;25.27;;
16892;SDS011;8563;52.242;9.098;2022-12-04T09:12:46;40.80;;;24.87;;
16892;SDS011;8563;52.242;9.098;2022-12-04T09:15:19;43.23;;;24.80;;
16892;SDS011;8563;52.242;9.098;2022-12-04T09:17:51;39.80;;;24.30;;
16892;SDS011;8563;52.242;9.098;2022-12-04T09:20:24;38.30;;;24.93;;
16892;SDS011;8563;52.242;9.098;2022-12-04T09:22:56;41.33;;;25.47;;
16892;SDS011;8563;52.242;9.098;2022-12-04T09:25:30;43.10;;;26.07;;
16892;SDS011;8563;52.242;9.098;2022-12-04T09:28:03;42.27;;;26.00;;
16892;SDS011;8563;52.242;9.098;2022-12-04T09:30:37;41.57;;;25.73;;
16892;SDS011;8563;52.242;9.098;2022-12-04T09:33:09;38.87;;;23.87;;
16892;SDS011;8563;52.242;9.098;2022-12-04T09:35:42;43.33;;;25.70;;
16892;SDS011;8563;52.242;9.098;2022-12-04T09:38:14;37.93;;;24.63;;
16892;SDS011;8563;52.242;9.098;2022-12-04T09:40:49;41.37;;;25.43;;
16892;SDS011;8563;52.242;9.098;2022-12-04T09:43:25;39.60;;;25.17;;
16892;SDS011;8563;52.242;9.098;2022-12-04T09:46:01;40.83;;;24.97;;
16892;SDS011;8563;52.242;9.098;2022-12-04T09:48:36;41.67;;;24.77;;
16892;SDS011;8563;52.242;9.098;2022-12-04T09:51:09;41.20;;;24.13;;
16892;SDS011;8563;52.242;9.098;2022-12-04T09:53:49;40.77;;;24.53;;
16892;SDS011;8563;52.242;9.098;2022-12-04T09:56:26;42.53;;;24.90;;
16892;SDS011;8563;52.242;9.098;2022-12-04T09:59:02;42.13;;;25.80;;
16892;SDS011;8563;52.242;9.098;2022-12-04T10:01:40;41.17;;;25.43;;
16892;SDS011;8563;52.242;9.098;2022-12-04T10:04:14;38.53;;;24.30;;
16892;SDS011;8563;52.242;9.098;2022-12-04T10:06:48;36.30;;;24.00;;
16892;SDS011;8563;52.242;9.098;2022-12-04T10:09:25;41.03;;;25.33;;
16892;SDS011;8563;52.242;9.098;2022-12-04T10:12:02;45.10;;;24.23;;
16892;SDS011;8563;52.242;9.098;2022-12-04T10:14:42;40.77;;;25.90;;
16892;SDS011;8563;52.242;9.098;2022-12-04T10:17:21;40.23;;;25.60;;
16892;SDS011;8563;52.242;9.098;2022-12-04T10:20:01;42.57;;;25.73;;
16892;SDS011;8563;52.242;9.098;2022-12-04T10:22:35;39.50;;;24.50;;
16892;SDS011;8563;52.242;9.098;2022-12-04T10:25:11;39.73;;;24.53;;
16892;SDS011;8563;52.242;9.098;2022-12-04T10:27:47;37.40;;;24.23;;
16892;SDS011;8563;52.242;9.098;2022-12-04T10:30:23;42.57;;;23.73;;
16892;SDS011;8563;52.242;9.098;2022-12-04T10:32:57;36.67;;;22.93;;
16892;SDS011;8563;52.242;9.098;2022-12-04T10:35:31;39.20;;;24.87;;
16892;SDS011;8563;52.242;9.098;2022-12-04T10:38:05;37.00;;;23.17;;
16892;SDS011;8563;52.242;9.098;2022-12-04T10:40:41;39.53;;;24.60;;
16892;SDS011;8563;52.242;9.098;2022-12-04T10:43:22;39.73;;;24.87;;
16892;SDS011;8563;52.242;9.098;2022-12-04T10:45:59;39.80;;;24.20;;
16892;SDS011;8563;52.242;9.098;2022-12-04T10:48:33;42.20;;;25.50;;
16892;SDS011;8563;52.242;9.098;2022-12-04T10:51:08;40.93;;;25.03;;
16892;SDS011;8563;52.242;9.098;2022-12-04T10:53:41;38.53;;;24.37;;
16892;SDS011;8563;52.242;9.098;2022-12-04T10:56:16;39.73;;;25.30;;
16892;SDS011;8563;52.242;9.098;2022-12-04T10:58:57;38.53;;;24.50;;
16892;SDS011;8563;52.242;9.098;2022-12-04T11:01:30;38.47;;;23.87;;
16892;SDS011;8563;52.242;9.098;2022-12-04T11:04:05;39.10;;;23.50;;
16892;SDS011;8563;52.242;9.098;2022-12-04T11:06:38;39.50;;;25.17;;
16892;SDS011;8563;52.242;9.098;2022-12-04T11:09:14;38.33;;;23.67;;
16892;SDS011;8563;52.242;9.098;2022-12-04T11:11:51;35.90;;;22.40;;
16892;SDS011;8563;52.242;9.098;2022-12-04T11:14:25;36.80;;;23.03;;
16892;SDS011;8563;52.242;9.098;2022-12-04T11:16:59;41.33;;;24.80;;
16892;SDS011;8563;52.242;9.098;2022-12-04T11:19:33;37.77;;;23.53;;
16892;SDS011;8563;52.242;9.098;2022-12-04T11:22:09;37.27;;;20.97;;
16892;SDS011;8563;52.242;9.098;2022-12-04T11:24:48;36.97;;;23.13;;
16892;SDS011;8563;52.242;9.098;2022-12-04T11:27:22;37.07;;;22.93;;
16892;SDS011;8563;52.242;9.098;2022-12-04T11:29:58;37.27;;;22.77;;
16892;SDS011;8563;52.242;9.098;2022-12-04T11:32:32;36.80;;;23.33;;
16892;SDS011;8563;52.242;9.098;2022-12-04T11:35:06;35.00;;;22.37;;
16892;SDS011;8563;52.242;9.098;2022-12-04T11:37:49;35.20;;;22.37;;
16892;SDS011;8563;52.242;9.098;2022-12-04T11:40:23;35.53;;;22.43;;
16892;SDS011;8563;52.242;9.098;2022-12-04T11:42:57;31.43;;;21.27;;
16892;SDS011;8563;52.242;9.098;2022-12-04T11:45:32;29.67;;;20.87;;
16892;SDS011;8563;52.242;9.098;2022-12-04T11:48:11;33.87;;;22.50;;
16892;SDS011;8563;52.242;9.098;2022-12-04T11:50:45;32.47;;;22.03;;
16892;SDS011;8563;52.242;9.098;2022-12-04T11:53:22;34.40;;;21.93;;
16892;SDS011;8563;52.242;9.098;2022-12-04T11:56:04;33.93;;;22.10;;
16892;SDS011;8563;52.242;9.098;2022-12-04T11:58:45;32.10;;;21.23;;
16892;SDS011;8563;52.242;9.098;2022-12-04T12:01:25;38.03;;;22.97;;
16892;SDS011;8563;52.242;9.098;2022-12-04T12:04:06;38.67;;;23.23;;
16892;SDS011;8563;52.242;9.098;2022-12-04T12:06:49;33.40;;;22.17;;
16892;SDS011;8563;52.242;9.098;2022-12-04T12:09:27;34.50;;;22.00;;
16892;SDS011;8563;52.242;9.098;2022-12-04T12:12:04;37.67;;;23.03;;
16892;SDS011;8563;52.242;9.098;2022-12-04T12:14:40;38.73;;;23.53;;
16892;SDS011;8563;52.242;9.098;2022-12-04T12:17:17;37.23;;;23.80;;
16892;SDS011;8563;52.242;9.098;2022-12-04T12:19:56;35.70;;;22.97;;
16892;SDS011;8563;52.242;9.098;2022-12-04T12:22:39;38.57;;;23.80;;
16892;SDS011;8563;52.242;9.098;2022-12-04T12:25:16;38.43;;;23.57;;
16892;SDS011;8563;52.242;9.098;2022-12-04T12:27:57;38.53;;;23.30;;
16892;SDS011;8563;52.242;9.098;2022-12-04T12:30:35;39.83;;;24.10;;
16892;SDS011;8563;52.242;9.098;2022-12-04T12:33:13;38.23;;;24.27;;
16892;SDS011;8563;52.242;9.098;2022-12-04T12:35:50;40.40;;;24.63;;
16892;SDS011;8563;52.242;9.098;2022-12-04T12:38:27;40.17;;;25.27;;
16892;SDS011;8563;52.242;9.098;2022-12-04T12:41:02;41.57;;;25.50;;
16892;SDS011;8563;52.242;9.098;2022-12-04T12:43:36;39.83;;;24.67;;
16892;SDS011;8563;52.242;9.098;2022-12-04T12:46:09;38.23;;;23.47;;
16892;SDS011;8563;52.242;9.098;2022-12-04T12:48:47;39.87;;;24.67;;
16892;SDS011;8563;52.242;9.098;2022-12-04T12:51:24;40.27;;;24.07;;
16892;SDS011;8563;52.242;9.098;2022-12-04T12:54:00;36.63;;;23.17;;
16892;SDS011;8563;52.242;9.098;2022-12-04T12:56:36;40.33;;;24.50;;
16892;SDS011;8563;52.242;9.098;2022-12-04T12:59:11;37.33;;;22.10;;
16892;SDS011;8563;52.242;9.098;2022-12-04T13:01:46;36.00;;;23.03;;
16892;SDS011;8563;52.242;9.098;2022-12-04T13:04:24;37.73;;;23.57;;
16892;SDS011;8563;52.242;9.098;2022-12-04T13:07:03;38.30;;;22.00;;
16892;SDS011;8563;52.242;9.098;2022-12-04T13:09:37;39.83;;;23.37;;
16892;SDS011;8563;52.242;9.098;2022-12-04T13:12:14;36.83;;;22.87;;
16892;SDS011;8563;52.242;9.098;2022-12-04T13:14:47;35.53;;;21.93;;
16892;SDS011;8563;52.242;9.098;2022-12-04T13:17:22;33.63;;;21.90;;
16892;SDS011;8563;52.242;9.098;2022-12-04T13:19:58;32.83;;;21.50;;
16892;SDS011;8563;52.242;9.098;2022-12-04T13:22:33;35.57;;;22.70;;
16892;SDS011;8563;52.242;9.098;2022-12-04T13:28:00;33.60;;;20.80;;
16892;SDS011;8563;52.242;9.098;2022-12-04T13:30:37;31.90;;;20.63;;
16892;SDS011;8563;52.242;9.098;2022-12-04T13:36:12;31.47;;;20.20;;
16892;SDS011;8563;52.242;9.098;2022-12-04T13:38:51;34.07;;;20.97;;
16892;SDS011;8563;52.242;9.098;2022-12-04T13:41:28;30.87;;;20.53;;
16892;SDS011;8563;52.242;9.098;2022-12-04T13:44:10;31.90;;;18.90;;
16892;SDS011;8563;52.242;9.098;2022-12-04T13:46:47;28.20;;;19.53;;
16892;SDS011;8563;52.242;9.098;2022-12-04T13:49:23;26.13;;;17.77;;
16892;SDS011;8563;52.242;9.098;2022-12-04T13:51:58;29.23;;;19.27;;
16892;SDS011;8563;52.242;9.098;2022-12-04T13:54:32;31.70;;;20.07;;
16892;SDS011;8563;52.242;9.098;2022-12-04T13:57:14;34.57;;;21.47;;
16892;SDS011;8563;52.242;9.098;2022-12-04T13:59:49;33.17;;;21.40;;
16892;SDS011;8563;52.242;9.098;2022-12-04T14:02:43;34.43;;;21.57;;
16892;SDS011;8563;52.242;9.098;2022-12-04T14:05:24;29.93;;;20.60;;
16892;SDS011;8563;52.242;9.098;2022-12-04T14:08:00;29.20;;;19.70;;
16892;SDS011;8563;52.242;9.098;2022-12-04T14:10:34;33.27;;;20.87;;
16892;SDS011;8563;52.242;9.098;2022-12-04T14:13:14;34.37;;;21.90;;
16892;SDS011;8563;52.242;9.098;2022-12-04T14:15:48;30.90;;;20.17;;
16892;SDS011;8563;52.242;9.098;2022-12-04T14:18:33;31.57;;;19.83;;
16892;SDS011;8563;52.242;9.098;2022-12-04T14:21:06;34.03;;;21.20;;
16892;SDS011;8563;52.242;9.098;2022-12-04T14:23:40;35.87;;;21.07;;
16892;SDS011;8563;52.242;9.098;2022-12-04T14:26:20;33.73;;;21.43;;
16892;SDS011;8563;52.242;9.098;2022-12-04T14:29:03;32.00;;;21.00;;
16892;SDS011;8563;52.242;9.098;2022-12-04T14:31:37;31.63;;;20.57;;
16892;SDS011;8563;52.242;9.098;2022-12-04T14:34:16;29.30;;;20.03;;
16892;SDS011;8563;52.242;9.098;2022-12-04T14:36:51;31.27;;;19.87;;
16892;SDS011;8563;52.242;9.098;2022-12-04T14:39:26;29.93;;;20.10;;
16892;SDS011;8563;52.242;9.098;2022-12-04T14:42:05;32.67;;;21.17;;
16892;SDS011;8563;52.242;9.098;2022-12-04T14:44:38;29.50;;;19.83;;
16892;SDS011;8563;52.242;9.098;2022-12-04T14:47:14;29.70;;;20.23;;
16892;SDS011;8563;52.242;9.098;2022-12-04T14:49:53;27.20;;;18.67;;
16892;SDS011;8563;52.242;9.098;2022-12-04T14:52:32;31.30;;;19.93;;
16892;SDS011;8563;52.242;9.098;2022-12-04T14:55:11;28.57;;;19.43;;
16892;SDS011;8563;52.242;9.098;2022-12-04T14:57:48;30.33;;;19.77;;
16892;SDS011;8563;52.242;9.098;2022-12-04T15:00:23;29.57;;;19.90;;
16892;SDS011;8563;52.242;9.098;2022-12-04T15:02:56;28.87;;;19.20;;
16892;SDS011;8563;52.242;9.098;2022-12-04T15:05:30;28.97;;;18.60;;
16892;SDS011;8563;52.242;9.098;2022-12-04T15:08:04;29.80;;;20.27;;
16892;SDS011;8563;52.242;9.098;2022-12-04T15:10:38;27.30;;;18.97;;
16892;SDS011;8563;52.242;9.098;2022-12-04T15:13:29;31.83;;;19.73;;
16892;SDS011;8563;52.242;9.098;2022-12-04T15:16:06;31.90;;;19.80;;
16892;SDS011;8563;52.242;9.098;2022-12-04T15:18:39;28.50;;;19.10;;
16892;SDS011;8563;52.242;9.098;2022-12-04T15:21:11;31.00;;;19.27;;
16892;SDS011;8563;52.242;9.098;2022-12-04T15:23:44;30.10;;;20.13;;
16892;SDS011;8563;52.242;9.098;2022-12-04T15:26:18;29.23;;;19.67;;